Time;durP1;ratioP1;P1;durP2;ratioP2;P2;SDS_P1;SDS_P2;PMS_P1;PMS_P2;Temp;Humidity;BMP_temperature;BMP_pressure;BME280_temperature;BME280_humidity;BME280_pressure;Samples;Min_cycle;Max_cycle;Signal;HPM_P1;HPM_P2
2021/01/12 00:00:33;;;;;;;8.43;5.47;;;0.80;84.90;;;;;;5093394;28;20024;-87
2021/01/12 00:03:00;;;;;;;9.73;6.03;;;0.80;84.90;;;;;;5120348;27;20387;-84
2021/01/12 00:05:26;;;;;;;8.07;5.43;;;0.90;84.70;;;;;;5086472;28;20048;-87
2021/01/12 00:07:51;;;;;;;8.90;5.53;;;0.80;84.70;;;;;;5071742;28;20035;-88
2021/01/12 00:10:20;;;;;;;10.57;6.13;;;0.80;84.70;;;;;;5091009;28;20024;-88
2021/01/12 00:12:46;;;;;;;5.43;4.37;;;0.80;84.90;;;;;;5092679;28;20024;-88
2021/01/12 00:15:12;;;;;;;7.43;4.73;;;0.80;85.00;;;;;;5090952;28;20026;-88
2021/01/12 00:17:38;;;;;;;6.70;4.80;;;0.80;84.90;;;;;;5088765;28;20032;-88
2021/01/12 00:20:09;;;;;;;8.67;5.27;;;0.80;84.80;;;;;;5071007;28;20082;-86
2021/01/12 00:22:34;;;;;;;7.77;5.40;;;0.80;84.70;;;;;;5071489;28;20123;-87
2021/01/12 00:25:00;;;;;;;6.17;4.80;;;0.80;84.60;;;;;;5070941;28;20115;-86
2021/01/12 00:27:26;;;;;;;6.87;4.70;;;0.80;84.60;;;;;;5070821;28;20115;-89
2021/01/12 00:29:52;;;;;;;9.57;5.13;;;0.80;84.70;;;;;;5070840;28;20582;-89
2021/01/12 00:32:24;;;;;;;10.03;6.20;;;0.80;84.40;;;;;;5070620;28;20386;-81
2021/01/12 00:34:50;;;;;;;7.73;5.23;;;0.80;84.10;;;;;;5069356;28;20520;-82
2021/01/12 00:37:17;;;;;;;9.87;5.10;;;0.80;83.80;;;;;;5070182;28;20036;-88
2021/01/12 00:39:43;;;;;;;7.60;4.43;;;0.90;83.60;;;;;;5070160;28;20021;-85
2021/01/12 00:42:08;;;;;;;7.40;4.87;;;0.90;83.60;;;;;;5071488;28;20036;-86
2021/01/12 00:44:34;;;;;;;6.37;4.57;;;0.90;83.40;;;;;;5080694;28;20069;-84
2021/01/12 00:47:00;;;;;;;6.27;4.87;;;0.80;83.30;;;;;;5090251;28;20119;-88
2021/01/12 00:49:25;;;;;;;5.93;4.67;;;0.80;83.30;;;;;;5075936;28;20194;-83
2021/01/12 00:51:53;;;;;;;7.50;5.07;;;0.80;83.40;;;;;;5070340;28;20056;-80
2021/01/12 00:54:22;;;;;;;6.60;4.73;;;0.80;83.20;;;;;;5070373;28;20375;-82
2021/01/12 00:56:50;;;;;;;6.13;4.87;;;0.70;83.40;;;;;;5070022;28;20039;-84
2021/01/12 00:59:16;;;;;;;7.57;4.20;;;0.70;83.70;;;;;;5069854;28;20094;-82
2021/01/12 01:01:43;;;;;;;6.10;4.80;;;0.80;83.60;;;;;;5068734;28;20486;-81
2021/01/12 01:04:09;;;;;;;7.43;4.77;;;0.80;83.10;;;;;;5070123;28;20483;-85
2021/01/12 01:06:35;;;;;;;7.40;4.40;;;0.80;83.30;;;;;;5090212;28;20047;-86
2021/01/12 01:09:01;;;;;;;6.43;5.03;;;0.80;83.60;;;;;;5090851;28;20564;-85
2021/01/12 01:11:26;;;;;;;7.87;4.40;;;0.70;83.20;;;;;;5090138;28;20024;-88
2021/01/12 01:13:52;;;;;;;6.87;4.20;;;0.80;83.20;;;;;;5089618;28;20029;-84
2021/01/12 01:16:18;;;;;;;6.37;4.63;;;0.70;83.20;;;;;;5092381;28;20507;-85
2021/01/12 01:18:44;;;;;;;6.20;4.50;;;0.70;83.50;;;;;;5075643;28;20081;-87
2021/01/12 01:21:13;;;;;;;6.60;4.73;;;0.70;83.20;;;;;;5073431;28;20040;-84
2021/01/12 01:23:39;;;;;;;8.73;5.00;;;0.70;83.20;;;;;;5073416;28;20063;-76
2021/01/12 01:26:05;;;;;;;6.07;4.23;;;0.70;83.60;;;;;;5072075;28;20033;-77
2021/01/12 01:28:31;;;;;;;6.90;3.97;;;0.70;83.70;;;;;;5072321;28;20367;-77
2021/01/12 01:30:57;;;;;;;4.77;3.83;;;0.60;83.60;;;;;;5072554;28;20028;-77
2021/01/12 01:33:23;;;;;;;6.67;4.33;;;0.60;83.60;;;;;;5071791;28;20029;-77
2021/01/12 01:35:49;;;;;;;7.40;3.90;;;0.60;83.70;;;;;;5073587;28;20047;-76
2021/01/12 01:38:15;;;;;;;7.00;4.70;;;0.60;83.80;;;;;;5072419;28;20391;-80
2021/01/12 01:40:41;;;;;;;5.30;4.43;;;0.60;83.90;;;;;;5071993;28;20394;-77
2021/01/12 01:43:07;;;;;;;7.37;3.90;;;0.60;83.70;;;;;;5072169;28;20024;-77
2021/01/12 01:45:33;;;;;;;5.67;3.90;;;0.60;83.60;;;;;;5073839;28;20739;-77
2021/01/12 01:48:02;;;;;;;5.27;3.57;;;0.70;83.40;;;;;;5071298;28;20032;-77
2021/01/12 01:50:28;;;;;;;10.63;4.60;;;0.60;83.00;;;;;;5072405;28;20026;-80
2021/01/12 01:52:55;;;;;;;4.13;3.47;;;0.70;82.60;;;;;;5071577;28;20461;-77
2021/01/12 01:55:23;;;;;;;7.10;4.47;;;0.70;82.80;;;;;;5072775;28;20025;-76
2021/01/12 01:57:49;;;;;;;4.13;3.67;;;0.70;82.90;;;;;;5073560;28;20771;-79
2021/01/12 02:00:17;;;;;;;14.47;4.17;;;0.60;83.00;;;;;;5071705;28;20025;-77
2021/01/12 02:03:03;;;;;;;5.03;4.00;;;0.60;83.20;;;;;;5071693;28;20032;-77
2021/01/12 02:05:34;;;;;;;5.23;4.30;;;0.60;83.30;;;;;;5043519;28;20088;-77
2021/01/12 02:08:06;;;;;;;5.50;3.83;;;0.50;83.20;;;;;;5105373;28;20020;-77
2021/01/12 02:10:39;;;;;;;6.00;3.90;;;0.50;83.20;;;;;;5105949;28;20021;-76
2021/01/12 02:13:05;;;;;;;;;;;0.50;84.00;;;;;;5105957;28;20024;-77
2021/01/12 02:15:32;;;;;;;7.40;3.87;;;0.60;83.40;;;;;;5072511;28;19962;-76
2021/01/12 02:17:58;;;;;;;6.17;3.50;;;0.60;83.20;;;;;;5101826;28;20029;-76
2021/01/12 02:20:28;;;;;;;5.10;4.20;;;0.60;83.40;;;;;;5085216;28;20032;-76
2021/01/12 02:23:09;;;;;;;4.60;3.47;;;0.60;83.40;;;;;;5084656;28;20033;-76
2021/01/12 02:25:40;;;;;;;5.13;4.27;;;0.60;83.20;;;;;;5084604;28;20036;-76
2021/01/12 02:28:08;;;;;;;6.90;3.87;;;0.60;83.40;;;;;;5085752;28;20272;-82
2021/01/12 02:30:35;;;;;;;4.50;3.80;;;0.60;83.40;;;;;;5089682;28;20048;-82
2021/01/12 02:33:02;;;;;;;3.97;3.30;;;0.50;83.10;;;;;;5074935;28;20029;-82
2021/01/12 02:35:29;;;;;;;5.17;3.53;;;0.50;83.30;;;;;;5073677;28;20024;-82
2021/01/12 02:37:56;;;;;;;5.53;3.70;;;0.50;83.30;;;;;;5074757;28;20536;-82
2021/01/12 02:40:22;;;;;;;6.50;3.63;;;0.60;82.90;;;;;;5071871;28;20028;-82
2021/01/12 02:42:48;;;;;;;9.40;3.40;;;0.60;82.80;;;;;;5071323;28;20570;-82
2021/01/12 02:45:14;;;;;;;5.90;3.27;;;0.60;82.60;;;;;;5072094;28;20060;-82
2021/01/12 02:47:40;;;;;;;6.83;3.80;;;0.60;82.60;;;;;;5070665;28;20040;-80
2021/01/12 02:50:07;;;;;;;6.10;3.13;;;0.50;82.50;;;;;;5071392;28;20437;-81
2021/01/12 02:52:33;;;;;;;4.13;3.40;;;0.60;82.70;;;;;;5071460;28;20077;-86
2021/01/12 02:54:58;;;;;;;7.67;4.60;;;0.60;82.70;;;;;;5071518;28;20127;-81
2021/01/12 02:57:24;;;;;;;5.50;3.50;;;0.60;82.80;;;;;;5071726;28;20034;-84
2021/01/12 02:59:50;;;;;;;3.77;3.30;;;0.50;82.80;;;;;;5071778;28;20028;-79
2021/01/12 03:02:15;;;;;;;5.17;3.30;;;0.50;82.90;;;;;;5071305;28;20028;-82
2021/01/12 03:04:41;;;;;;;5.93;3.80;;;0.50;83.30;;;;;;5074401;28;20044;-85
2021/01/12 03:07:06;;;;;;;3.60;3.00;;;0.50;83.10;;;;;;5090797;28;20113;-83
2021/01/12 03:09:32;;;;;;;3.47;3.10;;;0.50;83.20;;;;;;5090839;28;20032;-82
2021/01/12 03:11:58;;;;;;;3.50;3.20;;;0.50;83.00;;;;;;5073778;28;20025;-84
2021/01/12 03:14:24;;;;;;;4.33;3.60;;;0.50;82.90;;;;;;5072163;28;20033;-83
2021/01/12 03:16:51;;;;;;;7.10;3.70;;;0.40;83.20;;;;;;5070034;28;20086;-80
2021/01/12 03:19:18;;;;;;;6.03;3.37;;;0.40;83.70;;;;;;5070484;28;20029;-84
2021/01/12 03:21:44;;;;;;;4.47;3.20;;;0.40;83.50;;;;;;5074273;28;20033;-86
2021/01/12 03:24:10;;;;;;;6.53;3.30;;;0.40;83.40;;;;;;5071896;28;20029;-79
2021/01/12 03:26:37;;;;;;;3.90;3.13;;;0.40;83.60;;;;;;5071639;28;20086;-79
2021/01/12 03:29:03;;;;;;;3.97;3.27;;;0.30;83.70;;;;;;5073370;28;20052;-79
2021/01/12 03:31:28;;;;;;;4.97;3.30;;;0.30;83.90;;;;;;5072261;28;20624;-79
2021/01/12 03:33:54;;;;;;;4.43;3.37;;;0.30;83.80;;;;;;5073462;28;20031;-78
2021/01/12 03:36:20;;;;;;;3.37;3.07;;;0.30;83.60;;;;;;5072425;28;20029;-78
2021/01/12 03:38:46;;;;;;;3.33;2.80;;;0.30;83.70;;;;;;5072342;28;20082;-78
2021/01/12 03:41:11;;;;;;;3.03;2.73;;;0.40;84.00;;;;;;5072353;28;20470;-78
2021/01/12 03:43:37;;;;;;;4.23;3.07;;;0.40;83.60;;;;;;5073270;28;20035;-78
2021/01/12 03:46:03;;;;;;;3.37;2.63;;;0.40;83.60;;;;;;5073368;28;20036;-78
2021/01/12 03:48:28;;;;;;;3.37;2.93;;;0.40;83.30;;;;;;5074083;28;20100;-78
2021/01/12 03:50:54;;;;;;;3.13;2.83;;;0.40;83.30;;;;;;5093537;28;20052;-78
2021/01/12 03:53:20;;;;;;;4.43;3.27;;;0.40;83.00;;;;;;5093490;28;20087;-78
2021/01/12 03:55:45;;;;;;;3.27;2.80;;;0.40;83.00;;;;;;5091600;28;20543;-78
2021/01/12 03:58:11;;;;;;;6.77;3.10;;;0.40;83.10;;;;;;5092344;28;20012;-78
2021/01/12 04:00:37;;;;;;;5.27;3.03;;;0.40;82.80;;;;;;5091942;28;20058;-78
2021/01/12 04:03:03;;;;;;;3.83;2.97;;;0.40;82.80;;;;;;5093279;28;20046;-78
2021/01/12 04:05:29;;;;;;;3.23;3.00;;;0.40;82.80;;;;;;5091917;28;20036;-78
2021/01/12 04:08:01;;;;;;;3.43;2.80;;;0.50;83.00;;;;;;5076676;28;20082;-78
2021/01/12 04:10:27;;;;;;;5.57;2.57;;;0.40;82.20;;;;;;5071852;28;20098;-78
2021/01/12 04:12:53;;;;;;;4.63;3.03;;;0.40;82.60;;;;;;5071722;28;20429;-79
2021/01/12 04:15:18;;;;;;;5.33;3.50;;;0.40;82.20;;;;;;5073045;28;20021;-78
2021/01/12 04:17:44;;;;;;;3.37;2.43;;;0.40;82.00;;;;;;5071680;28;20390;-79
2021/01/12 04:20:11;;;;;;;3.20;2.73;;;0.40;82.20;;;;;;5071773;28;20032;-78
2021/01/12 04:22:36;;;;;;;3.83;2.80;;;0.40;82.10;;;;;;5071598;28;20068;-78
2021/01/12 04:25:06;;;;;;;3.20;2.83;;;0.40;81.90;;;;;;5071609;28;20044;-78
2021/01/12 04:27:32;;;;;;;3.00;2.33;;;0.40;82.40;;;;;;5071607;28;20020;-78
2021/01/12 04:29:58;;;;;;;3.23;2.20;;;0.40;82.20;;;;;;5071601;28;20055;-78
2021/01/12 04:32:23;;;;;;;3.70;2.70;;;0.40;82.10;;;;;;5071649;28;20073;-78
2021/01/12 04:34:49;;;;;;;4.07;2.73;;;0.40;81.90;;;;;;5071520;28;20025;-78
2021/01/12 04:37:15;;;;;;;2.33;2.13;;;0.40;82.40;;;;;;5072931;28;20036;-78
2021/01/12 04:39:40;;;;;;;2.63;2.43;;;0.40;82.20;;;;;;5071477;28;20028;-78
2021/01/12 04:42:06;;;;;;;4.50;2.60;;;0.40;82.10;;;;;;5071428;28;20029;-78
2021/01/12 04:44:32;;;;;;;2.60;2.40;;;0.40;81.80;;;;;;5071458;28;20111;-78
2021/01/12 04:46:57;;;;;;;3.23;2.27;;;0.40;81.60;;;;;;5071455;28;20498;-78
2021/01/12 04:49:23;;;;;;;4.13;2.50;;;0.50;81.80;;;;;;5071552;28;20028;-78
2021/01/12 04:51:49;;;;;;;3.53;2.87;;;0.50;82.00;;;;;;5074874;28;20028;-78
2021/01/12 04:54:14;;;;;;;4.97;2.53;;;0.50;83.20;;;;;;5075418;28;20107;-78
2021/01/12 04:56:42;;;;;;;5.67;3.63;;;0.40;83.10;;;;;;5075447;28;20027;-79
2021/01/12 04:59:08;;;;;;;5.37;4.00;;;0.30;84.00;;;;;;5075219;28;20381;-78
2021/01/12 05:01:34;;;;;;;6.87;4.07;;;0.20;84.60;;;;;;5094235;28;20103;-78
2021/01/12 05:04:04;;;;;;;5.47;4.23;;;0.10;85.10;;;;;;5096723;28;20031;-78
2021/01/12 05:06:30;;;;;;;7.13;4.47;;;0.10;85.60;;;;;;5115812;28;20051;-78
2021/01/12 05:08:56;;;;;;;5.37;4.50;;;0.00;86.00;;;;;;5098937;28;20024;-78
2021/01/12 05:11:26;;;;;;;11.27;5.47;;;-0.10;86.20;;;;;;5117016;28;20061;-78
2021/01/12 05:13:56;;;;;;;11.47;5.70;;;-0.20;86.80;;;;;;5116687;28;20068;-79
2021/01/12 05:16:25;;;;;;;8.53;5.50;;;-0.30;87.60;;;;;;5098645;28;20111;-78
2021/01/12 05:18:52;;;;;;;9.03;5.93;;;-0.40;88.20;;;;;;5098788;28;20019;-79
2021/01/12 05:21:19;;;;;;;9.60;6.43;;;-0.30;88.60;;;;;;5098537;28;20019;-79
2021/01/12 05:24:05;;;;;;;11.60;7.13;;;-0.30;88.80;;;;;;5116698;28;20481;-79
2021/01/12 05:26:36;;;;;;;9.93;6.50;;;-0.40;88.40;;;;;;5116727;28;20024;-79
2021/01/12 05:29:04;;;;;;;8.80;5.43;;;-0.40;88.70;;;;;;5116818;28;20020;-79
2021/01/12 05:31:30;;;;;;;9.50;6.33;;;-0.40;89.20;;;;;;5098200;28;20404;-79
2021/01/12 05:34:02;;;;;;;9.17;6.10;;;-0.40;89.60;;;;;;5098297;28;20461;-79
2021/01/12 05:36:29;;;;;;;9.07;6.05;;;-0.40;90.10;;;;;;5116648;28;20062;-79
2021/01/12 05:38:59;;;;;;;8.07;5.77;;;-0.40;90.40;;;;;;5098339;28;20030;-79
2021/01/12 05:41:25;;;;;;;10.80;5.77;;;-0.40;90.50;;;;;;5116534;28;20023;-79
2021/01/12 05:43:51;;;;;;;11.37;6.90;;;-0.40;90.30;;;;;;5097962;28;20508;-79
2021/01/12 05:46:17;;;;;;;14.60;6.57;;;-0.40;90.30;;;;;;5098054;28;20020;-79
2021/01/12 05:48:44;;;;;;;10.43;6.20;;;-0.40;90.30;;;;;;5098086;28;20055;-78
2021/01/12 05:51:13;;;;;;;13.97;6.27;;;-0.40;90.30;;;;;;5102320;27;20019;-79
2021/01/12 05:53:45;;;;;;;10.20;6.53;;;-0.50;90.50;;;;;;5118341;27;20030;-79
2021/01/12 05:56:21;;;;;;;10.95;5.82;;;-0.50;90.60;;;;;;5118487;27;20431;-79
2021/01/12 05:58:48;;;;;;;12.87;6.50;;;-0.50;90.70;;;;;;5118166;27;20023;-78
2021/01/12 06:01:21;;;;;;;11.53;6.13;;;-0.50;91.00;;;;;;5117984;27;20045;-79
2021/01/12 06:03:48;;;;;;;11.53;6.27;;;-0.50;91.10;;;;;;5117481;27;20023;-78
2021/01/12 06:06:14;;;;;;;9.57;6.13;;;-0.60;91.20;;;;;;5127336;27;20035;-78
2021/01/12 06:08:40;;;;;;;14.63;6.30;;;-0.60;91.30;;;;;;5097359;28;20118;-78
2021/01/12 06:11:07;;;;;;;9.77;5.43;;;-0.50;91.40;;;;;;5097392;28;20032;-78
2021/01/12 06:13:35;;;;;;;8.77;5.13;;;-0.50;91.20;;;;;;5097570;28;20081;-79
2021/01/12 06:16:13;;;;;;;8.90;5.40;;;-0.60;91.30;;;;;;5097580;28;20092;-79
2021/01/12 06:19:04;;;;;;;14.10;4.53;;;-0.50;91.30;;;;;;5097489;28;20020;-78
2021/01/12 06:21:34;;;;;;;8.98;4.88;;;-0.50;91.00;;;;;;5115518;28;20133;-79
2021/01/12 06:24:03;;;;;;;6.63;4.90;;;-0.40;91.10;;;;;;5096908;28;20114;-78
2021/01/12 06:26:29;;;;;;;10.47;5.07;;;-0.40;91.20;;;;;;5115444;28;20430;-78
2021/01/12 06:28:55;;;;;;;9.47;5.03;;;-0.50;91.10;;;;;;5097147;28;20465;-78
2021/01/12 06:31:20;;;;;;;11.43;6.10;;;-0.50;91.20;;;;;;5096696;28;20066;-78
2021/01/12 06:33:56;;;;;;;11.90;6.33;;;-0.50;91.30;;;;;;5096689;28;20020;-78
2021/01/12 06:36:25;;;;;;;8.27;5.87;;;-0.50;91.50;;;;;;5096971;28;20027;-79
2021/01/12 06:38:51;;;;;;;12.37;6.43;;;-0.50;91.50;;;;;;5096690;28;20027;-78
2021/01/12 06:41:20;;;;;;;10.87;5.87;;;-0.60;91.70;;;;;;5097017;28;20020;-79
2021/01/12 06:43:49;;;;;;;11.97;6.70;;;-0.70;91.80;;;;;;5096965;28;20114;-79
2021/01/12 06:46:16;;;;;;;17.10;6.60;;;-0.60;91.80;;;;;;5096859;28;20477;-78
2021/01/12 06:48:44;;;;;;;12.33;5.57;;;-0.60;91.90;;;;;;5096843;28;20512;-79
2021/01/12 06:51:10;;;;;;;13.33;6.60;;;-0.60;91.90;;;;;;5115114;28;20034;-79
2021/01/12 06:53:36;;;;;;;13.23;6.87;;;-0.60;91.90;;;;;;5096707;28;20500;-78
2021/01/12 06:56:06;;;;;;;13.70;7.77;;;-0.60;91.90;;;;;;5096640;28;20021;-78
2021/01/12 06:58:31;;;;;;;10.93;6.83;;;-0.60;91.90;;;;;;5096730;28;20492;-79
2021/01/12 07:01:01;;;;;;;12.97;7.43;;;-0.60;92.00;;;;;;5096655;28;20019;-79
2021/01/12 07:03:31;;;;;;;12.00;6.73;;;-0.60;92.30;;;;;;5096648;28;20465;-78
2021/01/12 07:06:01;;;;;;;13.97;7.90;;;-0.60;92.70;;;;;;5096268;28;20054;-79
2021/01/12 07:08:28;;;;;;;15.67;8.83;;;-0.60;92.80;;;;;;5096514;28;20045;-79
2021/01/12 07:10:55;;;;;;;19.00;7.43;;;-0.60;92.70;;;;;;5096534;28;20024;-79
2021/01/12 07:13:21;;;;;;;12.47;7.37;;;-0.60;92.80;;;;;;5096052;28;20024;-78
2021/01/12 07:15:48;;;;;;;16.60;7.33;;;-0.60;92.80;;;;;;5096284;28;20065;-79
2021/01/12 07:18:20;;;;;;;17.03;8.20;;;-0.50;92.80;;;;;;5096342;28;20426;-78
2021/01/12 07:20:45;;;;;;;;;;;-0.50;92.80;;;;;;5096833;28;20485;-78
2021/01/12 07:23:12;;;;;;;16.50;9.63;;;-0.50;92.60;;;;;;5096209;28;19919;-78
2021/01/12 07:25:43;;;;;;;18.30;8.43;;;-0.50;92.50;;;;;;5096146;28;20380;-78
2021/01/12 07:28:22;;;;;;;22.20;10.57;;;-0.60;92.80;;;;;;5095962;28;20069;-78
2021/01/12 07:30:53;;;;;;;19.60;9.97;;;-0.70;92.60;;;;;;5114066;28;20514;-78
2021/01/12 07:33:22;;;;;;;20.30;12.13;;;-0.80;92.80;;;;;;5096034;28;20026;-79
2021/01/12 07:35:51;;;;;;;20.17;11.10;;;-0.80;93.10;;;;;;5096153;28;20121;-78
2021/01/12 07:38:22;;;;;;;21.13;10.23;;;-0.70;93.10;;;;;;5096005;28;20027;-78
2021/01/12 07:40:48;;;;;;;23.80;11.20;;;-0.70;93.10;;;;;;5114239;28;20030;-79
2021/01/12 07:43:19;;;;;;;26.33;13.80;;;-0.70;93.50;;;;;;5095832;28;20034;-78
2021/01/12 07:45:46;;;;;;;27.90;13.97;;;-0.70;93.40;;;;;;5095709;28;20034;-78
2021/01/12 07:48:13;;;;;;;26.67;14.13;;;-0.60;93.30;;;;;;5092518;28;20034;-79
2021/01/12 07:50:45;;;;;;;23.50;13.73;;;-0.60;93.40;;;;;;5093313;28;20031;-79
2021/01/12 07:53:13;;;;;;;27.80;12.13;;;-0.50;93.30;;;;;;5094451;28;20024;-79
2021/01/12 07:55:43;;;;;;;22.77;13.20;;;-0.50;93.20;;;;;;5095189;28;20028;-79
2021/01/12 07:58:10;;;;;;;61.83;23.27;;;-0.40;93.40;;;;;;5095006;28;20027;-78
2021/01/12 08:00:36;;;;;;;42.30;19.13;;;-0.40;93.40;;;;;;5094945;28;20243;-78
2021/01/12 08:03:03;;;;;;;35.60;16.60;;;-0.40;93.50;;;;;;5129152;27;20496;-79
2021/01/12 08:05:29;;;;;;;34.00;16.90;;;-0.40;93.80;;;;;;5094995;28;20504;-79
2021/01/12 08:08:06;;;;;;;25.93;13.03;;;-0.30;94.00;;;;;;5094724;28;20027;-79
2021/01/12 08:10:37;;;;;;;25.83;12.40;;;-0.30;93.80;;;;;;5094582;28;21363;-79
2021/01/12 08:13:13;;;;;;;41.90;16.03;;;-0.30;93.60;;;;;;5111689;28;20020;-84
2021/01/12 08:15:47;;;;;;;41.57;16.30;;;-0.30;93.70;;;;;;5088245;28;20157;-84
2021/01/12 08:18:14;;;;;;;31.53;15.90;;;-0.30;93.70;;;;;;5094912;28;20063;-84
2021/01/12 08:20:40;;;;;;;36.97;14.43;;;-0.20;93.60;;;;;;5094876;28;20055;-84
2021/01/12 08:23:06;;;;;;;27.00;13.60;;;-0.20;93.60;;;;;;5094999;28;20404;-79
2021/01/12 08:25:34;;;;;;;24.00;12.77;;;-0.10;93.30;;;;;;5128241;27;20034;-79
2021/01/12 08:28:01;;;;;;;23.10;11.70;;;0.00;93.30;;;;;;5094630;28;20115;-79
2021/01/12 08:30:29;;;;;;;19.63;10.33;;;-0.10;92.80;;;;;;5094806;28;20019;-79
2021/01/12 08:33:35;;;;;;;21.30;10.20;;;-0.10;92.30;;;;;;5094433;28;20477;-78
2021/01/12 08:36:13;;;;;;;19.97;9.87;;;-0.10;92.40;;;;;;5094855;28;20025;-85
2021/01/12 08:38:41;;;;;;;25.50;10.23;;;-0.20;91.90;;;;;;5087131;28;20045;-85
2021/01/12 08:41:08;;;;;;;26.40;10.67;;;-0.10;92.20;;;;;;5094840;28;20479;-85
2021/01/12 08:43:38;;;;;;;20.80;9.50;;;0.10;92.20;;;;;;5094788;28;20028;-84
2021/01/12 08:46:08;;;;;;;16.93;10.23;;;0.20;91.60;;;;;;5112966;28;20024;-84
2021/01/12 08:48:34;;;;;;;20.67;10.20;;;0.30;91.80;;;;;;5113039;28;20102;-85
2021/01/12 08:51:00;;;;;;;22.00;11.47;;;0.40;91.70;;;;;;5128358;28;20208;-85
2021/01/12 08:53:30;;;;;;;20.93;10.07;;;0.50;91.50;;;;;;5094587;28;20023;-79
2021/01/12 08:56:09;;;;;;;21.63;11.03;;;0.50;91.20;;;;;;5094324;28;20030;-78
2021/01/12 08:58:35;;;;;;;23.00;10.53;;;0.50;91.20;;;;;;5094344;28;20050;-78
2021/01/12 09:01:03;;;;;;;17.33;9.47;;;0.60;90.70;;;;;;5093998;28;20020;-78
2021/01/12 09:03:30;;;;;;;25.23;9.10;;;0.60;90.70;;;;;;5094257;28;20384;-78
2021/01/12 09:05:55;;;;;;;20.23;7.90;;;0.60;89.00;;;;;;5090481;28;20052;-78
2021/01/12 09:08:23;;;;;;;15.87;8.03;;;0.60;87.90;;;;;;5085308;28;20022;-78
2021/01/12 09:10:49;;;;;;;11.23;7.70;;;0.60;87.00;;;;;;5091094;28;20028;-78
2021/01/12 09:13:16;;;;;;;21.97;7.63;;;0.60;86.80;;;;;;5082282;28;20032;-78
2021/01/12 09:15:51;;;;;;;15.47;7.37;;;0.70;86.50;;;;;;5091033;28;20038;-77
2021/01/12 09:18:21;;;;;;;17.03;7.10;;;0.70;85.80;;;;;;5092101;28;20024;-77
2021/01/12 09:20:59;;;;;;;18.93;6.97;;;0.90;85.70;;;;;;5092023;28;20436;-78
2021/01/12 09:26:26;;;;;;;19.77;7.73;;;1.10;84.70;;;;;;5087310;28;20098;-77
2021/01/12 09:28:53;;;;;;;16.77;7.35;;;1.20;83.00;;;;;;5090359;28;20028;-77
2021/01/12 09:31:24;;;;;;;14.63;7.10;;;1.30;83.30;;;;;;5090587;28;20030;-78
2021/01/12 09:33:56;;;;;;;15.83;7.80;;;1.40;84.90;;;;;;5091904;28;20052;-76
2021/01/12 09:36:31;;;;;;;12.27;7.43;;;2.10;86.80;;;;;;5090884;28;20023;-76
2021/01/12 09:38:57;;;;;;;10.23;6.80;;;1.90;81.20;;;;;;5094169;28;20035;-76
2021/01/12 09:41:24;;;;;;;12.57;7.57;;;1.80;80.50;;;;;;5095507;28;20028;-77
2021/01/12 09:43:50;;;;;;;17.07;8.07;;;1.80;80.50;;;;;;5094300;28;20476;-76
2021/01/12 09:46:16;;;;;;;12.07;7.13;;;1.70;80.40;;;;;;5094518;28;20032;-76
2021/01/12 09:48:42;;;;;;;12.10;7.17;;;1.80;81.10;;;;;;5095625;28;20100;-76
2021/01/12 09:51:12;;;;;;;12.63;7.50;;;1.80;81.60;;;;;;5094988;28;20110;-76
2021/01/12 09:53:42;;;;;;;11.33;6.50;;;1.80;81.00;;;;;;5095175;28;20547;-78
2021/01/12 09:56:11;;;;;;;18.37;7.60;;;1.70;81.20;;;;;;5093957;28;20047;-78
2021/01/12 09:58:37;;;;;;;14.23;7.93;;;1.70;81.00;;;;;;5093766;28;20028;-76
2021/01/12 10:01:03;;;;;;;12.53;7.23;;;1.80;80.70;;;;;;5094953;28;20054;-78
2021/01/12 10:03:29;;;;;;;23.23;7.37;;;1.80;80.60;;;;;;5093918;28;20047;-79
2021/01/12 10:06:47;;;;;;;13.77;6.90;;;1.80;80.40;;;;;;5109357;28;20523;-78
2021/01/12 10:09:13;;;;;;;19.20;7.63;;;1.70;80.00;;;;;;5115618;28;20045;-78
2021/01/12 10:11:39;;;;;;;16.40;7.53;;;1.70;82.00;;;;;;5110231;28;20031;-78
2021/01/12 10:14:04;;;;;;;14.53;8.53;;;1.70;82.80;;;;;;5112378;28;20077;-79
2021/01/12 10:16:30;;;;;;;18.07;8.53;;;1.60;82.20;;;;;;5110712;28;20102;-79
2021/01/12 10:18:56;;;;;;;15.37;8.00;;;1.60;82.30;;;;;;5094169;28;20111;-79
2021/01/12 10:21:22;;;;;;;17.40;8.13;;;1.60;82.80;;;;;;5110097;28;20485;-79
2021/01/12 10:23:48;;;;;;;12.37;8.57;;;1.60;82.10;;;;;;5112574;28;20076;-79
2021/01/12 10:26:15;;;;;;;15.43;7.37;;;1.60;82.30;;;;;;5109920;28;20032;-79
2021/01/12 10:28:41;;;;;;;17.20;7.97;;;1.70;81.50;;;;;;5111303;28;20016;-79
2021/01/12 10:31:13;;;;;;;17.13;9.10;;;1.80;81.20;;;;;;5109191;28;21035;-79
2021/01/12 10:33:39;;;;;;;15.95;7.82;;;1.90;81.20;;;;;;5111699;28;20023;-79
2021/01/12 10:36:05;;;;;;;14.80;8.77;;;2.00;81.30;;;;;;5090321;28;20028;-78
2021/01/12 10:38:31;;;;;;;28.53;9.50;;;2.10;81.50;;;;;;5111709;28;20023;-79
2021/01/12 10:40:57;;;;;;;16.93;8.63;;;2.10;81.00;;;;;;5091939;28;20077;-79
2021/01/12 10:43:24;;;;;;;11.97;7.63;;;2.20;81.00;;;;;;5112346;28;20469;-78
2021/01/12 10:45:54;;;;;;;22.90;8.40;;;2.10;80.50;;;;;;5091934;28;20042;-78
2021/01/12 10:48:20;;;;;;;15.80;8.27;;;2.10;81.00;;;;;;5093010;28;20050;-77
2021/01/12 10:50:46;;;;;;;21.83;9.70;;;2.10;81.70;;;;;;5110079;28;20385;-78
2021/01/12 10:53:12;;;;;;;16.70;8.07;;;2.10;81.80;;;;;;5111925;28;20031;-79
2021/01/12 10:55:38;;;;;;;18.30;8.20;;;2.30;82.00;;;;;;5091488;28;20020;-78
2021/01/12 10:58:03;;;;;;;17.37;8.63;;;2.20;80.70;;;;;;5112518;28;20104;-78
2021/01/12 11:00:32;;;;;;;29.27;11.23;;;2.20;81.10;;;;;;5109548;28;20034;-78
2021/01/12 11:02:58;;;;;;;27.07;9.93;;;2.20;81.10;;;;;;5111808;28;20069;-78
2021/01/12 11:05:24;;;;;;;15.97;8.13;;;2.20;82.00;;;;;;5091027;28;20097;-76
2021/01/12 11:07:50;;;;;;;15.90;8.47;;;2.30;82.30;;;;;;5092968;28;20027;-76
2021/01/12 11:10:16;;;;;;;24.00;8.63;;;2.30;81.80;;;;;;5109405;28;20496;-76
2021/01/12 11:12:44;;;;;;;16.97;9.20;;;2.30;80.80;;;;;;5111554;28;20023;-76
2021/01/12 11:15:11;;;;;;;16.17;8.80;;;2.30;81.00;;;;;;5109058;28;20028;-77
2021/01/12 11:17:37;;;;;;;23.73;9.20;;;2.30;81.10;;;;;;5112072;28;20023;-77
2021/01/12 11:20:05;;;;;;;15.20;7.90;;;2.40;81.40;;;;;;5109226;28;20671;-77
2021/01/12 11:22:31;;;;;;;20.40;8.70;;;2.50;81.20;;;;;;5091964;28;20463;-77
2021/01/12 11:25:03;;;;;;;16.83;8.40;;;2.60;80.90;;;;;;5102774;27;20114;-76
2021/01/12 11:27:33;;;;;;;15.30;9.18;;;2.70;81.30;;;;;;5096975;28;20020;-76
2021/01/12 11:29:59;;;;;;;18.27;8.87;;;2.80;79.70;;;;;;5095801;27;20385;-76
2021/01/12 11:32:25;;;;;;;14.10;8.97;;;2.90;80.40;;;;;;5097126;28;20026;-77
2021/01/12 11:34:52;;;;;;;15.27;8.30;;;3.00;79.40;;;;;;5095597;28;20116;-77
2021/01/12 11:37:18;;;;;;;16.43;8.23;;;3.10;77.50;;;;;;5121602;27;20023;-79
2021/01/12 11:39:44;;;;;;;13.17;8.23;;;3.10;76.90;;;;;;5094469;28;20023;-76
2021/01/12 11:42:12;;;;;;;12.80;7.27;;;3.20;76.80;;;;;;5095042;28;20069;-77
2021/01/12 11:44:38;;;;;;;20.97;10.20;;;3.30;77.70;;;;;;5119780;27;20075;-76
2021/01/12 11:47:05;;;;;;;13.07;8.20;;;3.30;78.10;;;;;;5099095;28;20358;-77
2021/01/12 11:49:31;;;;;;;16.47;8.43;;;3.30;77.70;;;;;;5095420;28;20069;-77
2021/01/12 11:51:56;;;;;;;19.40;9.87;;;3.30;77.90;;;;;;5113537;28;20437;-77
2021/01/12 11:54:22;;;;;;;17.47;9.07;;;3.30;77.70;;;;;;5113362;28;20015;-76
2021/01/12 11:56:55;;;;;;;19.73;10.50;;;3.30;77.70;;;;;;5113338;28;20125;-77
2021/01/12 11:59:24;;;;;;;25.93;10.37;;;3.30;77.80;;;;;;5112825;28;20042;-76
2021/01/12 12:01:52;;;;;;;18.90;9.53;;;3.40;78.80;;;;;;5094708;28;20023;-77
2021/01/12 12:04:18;;;;;;;17.07;9.03;;;3.50;77.50;;;;;;5113193;28;20023;-77
2021/01/12 12:06:52;;;;;;;17.47;9.50;;;3.60;77.10;;;;;;5094551;28;20032;-77
2021/01/12 12:09:19;;;;;;;21.13;10.17;;;3.70;78.20;;;;;;5119801;27;20023;-76
2021/01/12 12:11:46;;;;;;;15.03;9.70;;;3.80;77.70;;;;;;5112678;28;20027;-77
2021/01/12 12:14:13;;;;;;;21.77;9.43;;;3.70;76.00;;;;;;5113376;28;20025;-77
2021/01/12 12:16:43;;;;;;;21.70;10.33;;;3.80;75.70;;;;;;5114122;27;20024;-77
2021/01/12 12:19:09;;;;;;;22.57;10.53;;;3.80;75.00;;;;;;5114957;27;20027;-77
2021/01/12 12:21:55;;;;;;;26.50;11.33;;;3.80;75.50;;;;;;5094872;28;20027;-77
2021/01/12 12:24:24;;;;;;;26.50;11.30;;;3.70;74.50;;;;;;5112253;28;20088;-77
2021/01/12 12:26:51;;;;;;;20.10;10.63;;;3.80;75.30;;;;;;5115764;27;20114;-79
2021/01/12 12:29:17;;;;;;;21.47;10.33;;;3.80;76.10;;;;;;5107431;28;20024;-78
2021/01/12 12:31:53;;;;;;;16.63;10.80;;;3.90;77.40;;;;;;5112368;28;20028;-79
2021/01/12 12:34:19;;;;;;;17.77;10.53;;;4.00;76.90;;;;;;5112396;28;20423;-78
2021/01/12 12:36:45;;;;;;;20.37;10.53;;;4.00;74.90;;;;;;5094446;28;20430;-78
2021/01/12 12:39:10;;;;;;;18.07;10.33;;;4.00;75.50;;;;;;5094610;28;20062;-77
2021/01/12 12:41:36;;;;;;;19.77;9.33;;;4.00;74.60;;;;;;5112780;28;20083;-77
2021/01/12 12:44:02;;;;;;;18.43;9.27;;;4.10;74.10;;;;;;5118663;28;20027;-76
2021/01/12 12:46:29;;;;;;;21.50;10.73;;;4.10;74.00;;;;;;5112525;28;20020;-77
2021/01/12 12:48:55;;;;;;;15.70;10.47;;;4.00;73.80;;;;;;5104949;28;20997;-77
2021/01/12 12:51:21;;;;;;;19.17;9.73;;;4.00;74.50;;;;;;5093810;28;20027;-77
2021/01/12 12:53:49;;;;;;;24.53;10.07;;;4.00;75.90;;;;;;5117240;28;20473;-77